createdAt,value
2018-05-11T00:01:01.571Z,65.59
2018-05-11T00:03:31.415Z,63.99
2018-05-11T00:06:14.670Z,65.85
2018-05-11T00:08:43.308Z,64.27
2018-05-11T00:11:11.868Z,63.84
2018-05-11T00:13:41.723Z,65.13
2018-05-11T00:16:12.276Z,66.70
2018-05-11T00:18:41.256Z,68.10
2018-05-11T00:21:11.978Z,68.42
2018-05-11T00:23:41.759Z,68.41
2018-05-11T00:26:11.445Z,68.91
2018-05-11T00:28:43.079Z,69.39
2018-05-11T00:31:11.894Z,70.10
2018-05-11T00:33:41.855Z,71.82
2018-05-11T00:36:13.365Z,70.84
2018-05-11T00:39:01.119Z,71.59
2018-05-11T00:41:41.466Z,72.09
2018-05-11T00:44:12.105Z,69.81
2018-05-11T00:46:42.105Z,69.26
2018-05-11T00:52:12.813Z,70.68
2018-05-11T00:54:41.473Z,72.28
2018-05-11T00:57:11.717Z,71.62
2018-05-11T00:59:41.562Z,72.46
2018-05-11T01:02:12.087Z,72.90
2018-05-11T01:04:41.717Z,73.06
2018-05-11T01:07:12.652Z,70.83
2018-05-11T01:09:43.537Z,71.80
2018-05-11T01:12:12.870Z,73.27
2018-05-11T01:14:41.879Z,73.35
2018-05-11T01:17:11.370Z,71.55
2018-05-11T01:19:43.214Z,67.76
2018-05-11T01:22:11.769Z,67.13
2018-05-11T01:24:41.657Z,67.14
2018-05-11T01:27:11.262Z,70.48
2018-05-11T01:29:42.990Z,71.81
2018-05-11T01:32:11.592Z,72.81
2018-05-11T01:34:41.338Z,72.95
2018-05-11T01:37:11.221Z,74.10
2018-05-11T01:39:41.926Z,74.11
2018-05-11T01:42:12.364Z,72.57
2018-05-11T01:44:41.223Z,70.34
2018-05-11T01:47:12.978Z,74.37
2018-05-11T01:49:41.796Z,74.58
2018-05-11T01:52:11.467Z,74.64
2018-05-11T01:54:41.468Z,74.03
2018-05-11T01:57:16.624Z,73.91
2018-05-11T01:59:45.962Z,74.45
2018-05-11T02:02:16.344Z,71.28
2018-05-11T02:04:46.227Z,69.39
2018-05-11T02:07:16.187Z,69.95
2018-05-11T02:09:46.468Z,73.67
2018-05-11T02:12:16.468Z,71.91
2018-05-11T02:14:45.810Z,71.93
2018-05-11T02:17:15.671Z,72.71
2018-05-11T02:19:46.287Z,72.35
2018-05-11T02:22:15.952Z,68.94
2018-05-11T02:24:46.612Z,68.72
2018-05-11T02:27:16.396Z,69.97
2018-05-11T02:29:46.358Z,72.67
2018-05-11T02:32:16.105Z,73.25
2018-05-11T02:34:45.733Z,74.01
2018-05-11T02:37:16.560Z,74.57
2018-05-11T02:39:46.266Z,74.74
2018-05-11T02:42:16.115Z,75.15
2018-05-11T02:44:45.947Z,75.79
2018-05-11T02:47:17.660Z,74.04
2018-05-11T02:49:46.215Z,70.95
2018-05-11T02:52:15.705Z,71.93
2018-05-11T02:54:51.195Z,68.86
2018-05-11T02:57:27.011Z,70.08
2018-05-11T02:59:56.161Z,69.87
2018-05-11T03:02:26.481Z,73.38
2018-05-11T03:04:56.319Z,73.24
2018-05-11T03:07:26.223Z,74.76
2018-05-11T03:09:56.674Z,74.99
2018-05-11T03:12:26.035Z,74.18
2018-05-11T03:14:56.429Z,71.80
2018-05-11T03:17:26.699Z,69.13
2018-05-11T03:19:55.983Z,69.40
2018-05-11T03:22:26.472Z,74.10
2018-05-11T03:24:56.102Z,75.52
2018-05-11T03:27:26.581Z,74.94
2018-05-11T03:30:03.336Z,74.01
2018-05-11T03:32:45.717Z,69.96
2018-05-11T03:35:15.052Z,69.35
2018-05-11T03:37:43.672Z,73.90
2018-05-11T03:40:13.687Z,75.33
2018-05-11T03:42:43.491Z,75.12
2018-05-11T03:45:14.477Z,74.26
2018-05-11T03:47:44.437Z,74.37
2018-05-11T03:50:13.738Z,74.76
2018-05-11T03:52:43.795Z,76.15
2018-05-11T03:55:13.495Z,75.73
2018-05-11T03:57:45.329Z,71.41
2018-05-11T04:00:14.010Z,69.06
2018-05-11T04:03:01.865Z,69.04
2018-05-11T04:05:48.321Z,69.25
2018-05-11T04:11:12.667Z,71.03
2018-05-11T04:13:43.231Z,70.46
2018-05-11T04:16:14.215Z,74.43
2018-05-11T04:18:43.964Z,74.88
2018-05-11T04:21:13.992Z,74.83
2018-05-11T04:23:43.687Z,73.92
2018-05-11T04:26:13.559Z,71.83
2018-05-11T04:29:07.295Z,70.00
2018-05-11T04:34:15.008Z,75.61
2018-05-11T04:36:44.400Z,76.31
2018-05-11T04:39:14.104Z,76.81
2018-05-11T04:41:43.855Z,71.47
2018-05-11T04:44:15.740Z,69.66
2018-05-11T04:46:44.363Z,75.03
2018-05-11T04:49:14.655Z,75.13
2018-05-11T04:54:44.314Z,75.66
2018-05-11T04:57:16.091Z,73.77
2018-05-11T04:59:44.609Z,74.96
2018-05-11T05:02:15.693Z,74.81
2018-05-11T05:04:44.261Z,75.66
2018-05-11T05:07:15.767Z,74.99
2018-05-11T05:09:44.539Z,75.06
2018-05-11T05:12:14.085Z,76.15
2018-05-11T05:14:43.902Z,74.18
2018-05-11T05:17:14.235Z,72.15
2018-05-11T05:19:44.217Z,71.82
2018-05-11T05:22:13.891Z,71.32
2018-05-11T05:24:45.470Z,73.21
2018-05-11T05:27:15.280Z,69.45
2018-05-11T05:29:44.680Z,70.94
2018-05-11T05:32:14.006Z,75.87
2018-05-11T05:34:45.311Z,73.13
2018-05-11T05:37:14.841Z,74.88
2018-05-11T05:39:44.971Z,76.41
2018-05-11T05:42:14.484Z,75.07
2018-05-11T05:47:46.022Z,76.36
2018-05-11T05:50:14.670Z,77.62
2018-05-11T05:52:44.816Z,76.04
2018-05-11T05:55:14.576Z,78.44
2018-05-11T05:57:45.265Z,78.11
2018-05-11T06:00:15.037Z,77.89
2018-05-11T06:02:44.701Z,77.41
2018-05-11T06:05:15.090Z,76.63
2018-05-11T06:07:45.041Z,75.65
2018-05-11T06:10:14.717Z,76.53
2018-05-11T06:12:44.370Z,76.16
2018-05-11T06:15:16.208Z,75.88
2018-05-11T06:17:44.979Z,73.93
2018-05-11T06:20:14.759Z,72.40
2018-05-11T06:22:44.635Z,75.63
2018-05-11T06:25:15.772Z,76.71
2018-05-11T06:27:44.387Z,77.05
2018-05-11T06:30:14.757Z,77.82
2018-05-11T06:32:45.476Z,76.83
2018-05-11T06:35:15.117Z,77.54
2018-05-11T06:37:44.995Z,76.69
2018-05-11T06:40:14.921Z,77.64
2018-05-11T06:42:45.728Z,76.86
2018-05-11T06:45:14.766Z,76.73
2018-05-11T06:47:46.395Z,76.88
2018-05-11T06:50:15.005Z,77.31
2018-05-11T06:52:44.900Z,76.09
2018-05-11T06:55:17.800Z,76.40
2018-05-11T06:57:46.424Z,76.31
2018-05-11T07:00:15.080Z,76.06
2018-05-11T07:02:45.251Z,75.55
2018-05-11T07:05:14.975Z,75.38
2018-05-11T07:07:43.621Z,74.96
2018-05-11T07:10:13.111Z,74.86
2018-05-11T07:12:41.690Z,75.50
2018-05-11T07:15:10.364Z,75.17
2018-05-11T07:17:40.276Z,74.92
2018-05-11T07:20:09.951Z,75.40
2018-05-11T07:22:40.507Z,73.74
2018-05-11T07:25:10.354Z,74.99
2018-05-11T07:27:41.203Z,74.13
2018-05-11T07:30:09.752Z,73.87
2018-05-11T07:32:39.826Z,73.92
2018-05-11T07:35:11.826Z,73.04
2018-05-11T07:37:41.158Z,72.03
2018-05-11T07:40:09.681Z,71.58
2018-05-11T07:42:40.047Z,70.35
2018-05-11T07:45:09.896Z,69.61
2018-05-11T07:47:39.670Z,69.05
2018-05-11T07:50:11.565Z,69.00
2018-05-11T07:52:40.127Z,69.73
2018-05-11T07:55:10.107Z,70.22
2018-05-11T07:57:39.978Z,69.78
2018-05-11T08:00:09.840Z,69.75
2018-05-11T08:02:39.819Z,69.86
2018-05-11T08:05:11.643Z,70.12
2018-05-11T08:07:40.200Z,69.88
2018-05-11T08:10:10.663Z,69.65
2018-05-11T08:12:40.396Z,69.94
2018-05-11T08:15:10.783Z,70.19
2018-05-11T08:17:40.514Z,69.19
2018-05-11T08:20:10.136Z,69.20
2018-05-11T08:22:41.825Z,67.69
2018-05-11T08:25:11.265Z,67.80
2018-05-11T08:27:40.302Z,67.78
2018-05-11T08:30:10.885Z,68.25
2018-05-11T08:32:40.783Z,68.21
2018-05-11T08:35:10.608Z,67.76
2018-05-11T08:37:40.510Z,67.71
2018-05-11T08:40:10.072Z,67.71
2018-05-11T08:42:41.727Z,67.68
2018-05-11T08:45:10.259Z,66.57
2018-05-11T08:47:40.236Z,66.25
2018-05-11T08:50:10.867Z,66.46
2018-05-11T08:52:40.582Z,65.09
2018-05-11T08:55:10.202Z,63.46
2018-05-11T08:57:38.658Z,63.39
2018-05-11T09:00:07.942Z,65.38
2018-05-11T09:02:38.227Z,63.53
2018-05-11T09:05:10.404Z,63.30
2018-05-11T09:07:41.007Z,62.79
2018-05-11T09:10:10.460Z,61.79
2018-05-11T09:12:40.434Z,60.85
2018-05-11T09:15:11.967Z,60.49
2018-05-11T09:17:40.666Z,60.58
2018-05-11T09:20:10.906Z,60.17
2018-05-11T09:22:41.143Z,60.62
2018-05-11T09:25:11.118Z,59.94
2018-05-11T09:27:40.470Z,61.35
2018-05-11T09:30:11.402Z,60.14
2018-05-11T09:32:40.966Z,60.09
2018-05-11T09:35:10.722Z,61.39
2018-05-11T09:37:40.204Z,59.80
2018-05-11T09:40:10.529Z,59.13
2018-05-11T09:42:39.163Z,58.75
2018-05-11T09:45:07.858Z,58.03
2018-05-11T09:47:36.643Z,58.22
2018-05-11T09:50:05.399Z,56.80
2018-05-11T09:52:35.886Z,57.95
2018-05-11T09:55:04.449Z,58.41
2018-05-11T09:57:32.824Z,57.19
2018-05-11T10:00:01.383Z,56.41
2018-05-11T10:02:29.914Z,56.37
2018-05-11T10:04:58.379Z,55.83
2018-05-11T10:07:26.830Z,56.45
2018-05-11T10:09:55.401Z,57.01
2018-05-11T10:12:24.004Z,58.33
2018-05-11T10:14:52.568Z,57.44
2018-05-11T10:17:21.202Z,56.78
2018-05-11T10:19:50.455Z,56.31
2018-05-11T10:22:19.033Z,55.58
2018-05-11T10:24:47.474Z,55.87
2018-05-11T10:27:15.984Z,54.28
2018-05-11T10:29:44.454Z,54.34
2018-05-11T10:32:13.798Z,54.06
2018-05-11T10:34:42.326Z,54.07
2018-05-11T10:37:10.880Z,53.34
2018-05-11T10:39:40.476Z,52.68
2018-05-11T10:42:10.186Z,54.02
2018-05-11T10:44:38.726Z,53.23
2018-05-11T10:47:07.182Z,54.26
2018-05-11T10:49:36.491Z,55.53
2018-05-11T10:52:04.985Z,53.98
2018-05-11T10:54:33.465Z,54.63
2018-05-11T10:57:01.953Z,54.42
2018-05-11T10:59:30.473Z,54.02
2018-05-11T11:01:59.056Z,54.23
2018-05-11T11:04:27.866Z,54.60
2018-05-11T11:06:56.604Z,52.86
2018-05-11T11:09:25.190Z,53.21
2018-05-11T11:11:54.657Z,54.30
2018-05-11T11:14:23.188Z,51.08
2018-05-11T11:16:51.810Z,52.14
2018-05-11T11:19:20.475Z,51.34
2018-05-11T11:21:50.874Z,54.05
2018-05-11T11:24:20.401Z,54.69
2018-05-11T11:26:50.348Z,51.20
2018-05-11T11:29:21.807Z,51.14
2018-05-11T11:31:50.747Z,50.12
2018-05-11T11:34:20.207Z,48.95
2018-05-11T11:36:50.447Z,49.43
2018-05-11T11:39:19.973Z,47.89
2018-05-11T11:41:49.701Z,49.02
2018-05-11T11:44:20.617Z,46.78
2018-05-11T11:46:49.561Z,48.00
2018-05-11T11:49:20.012Z,47.93
2018-05-11T11:51:50.844Z,47.60
2018-05-11T11:54:22.179Z,47.25
2018-05-11T11:56:51.496Z,47.65
2018-05-11T11:59:20.049Z,45.36
2018-05-11T12:01:49.407Z,46.17
2018-05-11T12:04:20.464Z,47.14
2018-05-11T12:06:49.941Z,47.33
2018-05-11T12:09:19.620Z,45.87
2018-05-11T12:11:50.641Z,47.24
2018-05-11T12:14:22.199Z,48.20
2018-05-11T12:16:50.745Z,47.25
2018-05-11T12:19:20.331Z,48.53
2018-05-11T12:21:52.526Z,49.05
2018-05-11T12:24:21.883Z,49.91
2018-05-11T12:26:51.387Z,48.45
2018-05-11T12:29:20.716Z,48.49
2018-05-11T12:31:50.303Z,47.89
2018-05-11T12:34:19.095Z,47.45
2018-05-11T12:36:49.177Z,47.74
2018-05-11T12:39:20.281Z,46.98
2018-05-11T12:41:50.451Z,45.58
2018-05-11T12:44:20.118Z,45.30
2018-05-11T12:46:52.484Z,43.96
2018-05-11T12:49:21.776Z,44.05
2018-05-11T12:51:51.346Z,46.42
2018-05-11T12:54:24.911Z,44.55
2018-05-11T12:56:53.468Z,44.10
2018-05-11T12:59:22.025Z,45.26
2018-05-11T13:01:52.266Z,45.47
2018-05-11T13:04:20.825Z,44.33
2018-05-11T13:06:49.584Z,45.52
2018-05-11T13:09:19.432Z,43.94
2018-05-11T13:11:48.027Z,46.29
2018-05-11T13:14:16.544Z,44.58
2018-05-11T13:16:45.047Z,44.87
2018-05-11T13:19:13.531Z,46.05
2018-05-11T13:21:41.998Z,46.88
2018-05-11T13:24:17.035Z,47.73
2018-05-11T13:26:45.588Z,46.64
2018-05-11T13:29:14.245Z,46.07
2018-05-11T13:31:42.791Z,46.34
2018-05-11T13:34:11.265Z,47.03
2018-05-11T13:36:39.814Z,47.10
2018-05-11T13:39:10.300Z,46.03
2018-05-11T13:41:38.802Z,45.18
2018-05-11T13:44:07.240Z,47.03
2018-05-11T13:46:35.697Z,45.35
2018-05-11T13:49:04.116Z,46.78
2018-05-11T13:51:32.559Z,45.52
2018-05-11T13:54:01.006Z,46.18
2018-05-11T13:56:29.505Z,45.25
2018-05-11T13:58:57.940Z,44.16
2018-05-11T14:01:26.393Z,44.66
2018-05-11T14:03:55.700Z,45.80
2018-05-11T14:06:24.316Z,45.07
2018-05-11T14:08:53.697Z,45.65
2018-05-11T14:11:22.221Z,45.04
2018-05-11T14:13:50.820Z,45.48
2018-05-11T14:16:19.427Z,44.65
2018-05-11T14:18:48.842Z,45.47
2018-05-11T14:21:17.392Z,45.71
2018-05-11T14:23:47.389Z,45.53
2018-05-11T14:26:16.831Z,45.21
2018-05-11T14:28:46.314Z,44.23
2018-05-11T14:31:14.869Z,45.08
2018-05-11T14:33:44.485Z,44.97
2018-05-11T14:36:13.027Z,44.63
2018-05-11T14:38:41.546Z,44.24
2018-05-11T14:41:10.811Z,44.87
2018-05-11T14:43:40.953Z,44.22
2018-05-11T14:46:09.455Z,44.96
2018-05-11T14:48:38.711Z,45.42
2018-05-11T14:51:07.273Z,45.58
2018-05-11T14:53:37.788Z,45.30
2018-05-11T14:56:06.373Z,44.49
2018-05-11T14:58:34.943Z,42.82
2018-05-11T15:01:04.334Z,43.88
2018-05-11T15:03:33.046Z,42.66
2018-05-11T15:06:01.735Z,43.53
2018-05-11T15:08:30.284Z,43.59
2018-05-11T15:10:59.847Z,43.05
2018-05-11T15:13:28.566Z,43.88
2018-05-11T15:15:57.160Z,44.21
2018-05-11T15:18:25.771Z,43.50
2018-05-11T15:20:54.567Z,43.06
2018-05-11T15:23:23.539Z,43.52
2018-05-11T15:25:52.128Z,43.82
2018-05-11T15:28:20.833Z,44.77
2018-05-11T15:30:49.779Z,43.72
2018-05-11T15:33:18.539Z,44.27
2018-05-11T15:35:47.358Z,44.22
2018-05-11T15:38:19.727Z,45.67
2018-05-11T15:40:48.725Z,45.06
2018-05-11T15:43:18.949Z,45.02
2018-05-11T15:45:48.759Z,44.66
2018-05-11T15:48:18.905Z,45.19
2018-05-11T15:50:48.826Z,43.90
2018-05-11T15:53:18.212Z,43.25
2018-05-11T15:55:47.392Z,44.73
2018-05-11T15:58:17.328Z,44.17
2018-05-11T16:00:46.355Z,45.10
2018-05-11T16:03:14.861Z,45.33
2018-05-11T16:05:43.364Z,46.13
2018-05-11T16:08:11.948Z,45.88
2018-05-11T16:10:40.439Z,46.19
2018-05-11T16:13:09.154Z,44.91
2018-05-11T16:15:38.124Z,45.74
2018-05-11T16:18:06.887Z,45.88
2018-05-11T16:20:35.491Z,45.89
2018-05-11T16:23:03.963Z,46.08
2018-05-11T16:25:32.417Z,45.56
2018-05-11T16:28:00.859Z,45.49
2018-05-11T16:30:29.370Z,45.34
2018-05-11T16:32:57.875Z,45.12
2018-05-11T16:35:27.262Z,44.92
2018-05-11T16:37:55.837Z,45.08
2018-05-11T16:40:24.462Z,43.89
2018-05-11T16:42:53.093Z,43.94
2018-05-11T16:45:21.887Z,44.71
2018-05-11T16:47:50.525Z,44.92
2018-05-11T16:50:19.364Z,45.11
2018-05-11T16:52:49.495Z,45.43
2018-05-11T16:55:19.425Z,44.14
2018-05-11T16:57:48.968Z,43.88
2018-05-11T17:00:19.633Z,43.96
2018-05-11T17:02:49.108Z,43.45
2018-05-11T17:05:17.954Z,44.64
2018-05-11T17:07:47.552Z,44.09
2018-05-11T17:10:16.306Z,45.95
2018-05-11T17:12:44.773Z,44.37
2018-05-11T17:15:13.264Z,45.73
2018-05-11T17:17:41.743Z,45.16
2018-05-11T17:20:10.415Z,47.12
2018-05-11T17:22:39.076Z,46.09
2018-05-11T17:25:07.831Z,45.92
2018-05-11T17:27:36.489Z,46.82
2018-05-11T17:30:05.048Z,47.41
2018-05-11T17:32:33.727Z,47.46
2018-05-11T17:35:02.250Z,47.79
2018-05-11T17:37:37.898Z,47.07
2018-05-11T17:40:06.637Z,47.86
2018-05-11T17:42:40.170Z,47.75
2018-05-11T17:45:08.821Z,48.52
2018-05-11T17:47:38.575Z,48.16
2018-05-11T17:50:07.224Z,48.65
2018-05-11T17:52:39.959Z,48.95
2018-05-11T17:55:08.623Z,48.40
2018-05-11T17:57:47.847Z,48.69
2018-05-11T18:00:19.515Z,48.50
2018-05-11T18:02:51.227Z,48.82
2018-05-11T18:05:20.024Z,48.58
2018-05-11T18:07:50.569Z,49.29
2018-05-11T18:10:19.835Z,48.70
2018-05-11T18:12:50.532Z,50.02
2018-05-11T18:15:22.561Z,48.87
2018-05-11T19:17:48.079Z,50.18
2018-05-11T19:20:17.052Z,49.88
2018-05-11T19:22:54.629Z,49.91
2018-05-11T19:25:26.860Z,50.38
2018-05-11T19:27:55.486Z,49.97
2018-05-11T19:30:23.957Z,49.56
2018-05-11T19:32:52.426Z,49.63
2018-05-11T19:36:03.589Z,49.77
2018-05-11T19:38:33.874Z,49.62
2018-05-11T19:41:02.414Z,49.78
2018-05-11T19:43:30.921Z,51.20
2018-05-11T19:46:02.031Z,51.51
2018-05-11T19:48:30.587Z,50.61
2018-05-11T19:51:11.373Z,51.13
2018-05-11T19:53:40.032Z,51.36
2018-05-11T19:56:12.426Z,51.09
2018-05-11T19:58:41.279Z,51.11
2018-05-11T20:01:09.949Z,51.41
2018-05-11T20:03:38.651Z,51.55
2018-05-11T20:06:07.281Z,51.74
2018-05-11T20:08:36.125Z,52.56
2018-05-11T20:11:06.076Z,52.63
2018-05-11T20:13:35.159Z,52.03
2018-05-11T20:16:04.449Z,52.35
2018-05-11T20:18:33.895Z,51.74
2018-05-11T20:21:02.454Z,52.24
2018-05-11T20:23:31.148Z,51.08
2018-05-11T20:25:59.732Z,51.64
2018-05-11T20:28:28.203Z,51.97
2018-05-11T20:30:57.562Z,51.72
2018-05-11T20:33:26.141Z,51.55
2018-05-11T20:35:55.195Z,51.81
2018-05-11T20:38:24.238Z,51.94
2018-05-11T20:40:53.290Z,53.47
2018-05-11T20:43:28.571Z,53.34
2018-05-11T20:45:57.545Z,52.69
2018-05-11T20:48:26.516Z,53.52
2018-05-11T20:50:55.076Z,53.12
2018-05-11T20:53:23.535Z,53.13
2018-05-11T20:55:52.073Z,53.28
2018-05-11T20:58:20.532Z,53.90
2018-05-11T21:00:49.772Z,54.08
2018-05-11T21:03:18.206Z,53.77
2018-05-11T21:05:46.699Z,53.42
2018-05-11T21:08:15.139Z,54.01
2018-05-11T21:10:43.722Z,53.95
2018-05-11T21:13:12.350Z,53.83
2018-05-11T21:15:41.019Z,54.47
2018-05-11T21:18:09.710Z,54.11
2018-05-11T21:20:38.553Z,54.22
2018-05-11T21:23:07.423Z,54.75
2018-05-11T21:25:36.916Z,53.81
2018-05-11T21:28:05.516Z,54.20
2018-05-11T21:30:33.954Z,54.51
2018-05-11T21:33:03.059Z,54.41
2018-05-11T21:35:33.022Z,54.36
2018-05-11T21:38:01.889Z,54.62
2018-05-11T21:40:30.718Z,55.80
2018-05-11T21:42:59.835Z,55.15
2018-05-11T21:45:28.359Z,54.28
2018-05-11T21:47:57.610Z,56.01
2018-05-11T21:50:26.055Z,56.57
2018-05-11T21:52:54.527Z,57.55
2018-05-11T21:55:23.075Z,57.25
2018-05-11T21:57:51.657Z,55.29
2018-05-11T22:00:20.100Z,55.46
2018-05-11T22:02:48.595Z,56.10
2018-05-11T22:05:17.080Z,56.33
2018-05-11T22:07:47.034Z,55.92
2018-05-11T22:10:15.545Z,56.36
2018-05-11T22:12:43.983Z,58.02
2018-05-11T22:15:12.458Z,56.79
2018-05-11T22:17:40.880Z,56.80
2018-05-11T22:20:09.317Z,56.01
2018-05-11T22:22:37.743Z,55.75
2018-05-11T22:25:06.234Z,57.70
2018-05-11T22:27:34.952Z,58.83
2018-05-11T22:30:04.463Z,58.89
2018-05-11T22:32:33.355Z,58.97
2018-05-11T22:35:02.095Z,58.74
2018-05-11T22:37:30.787Z,57.04
2018-05-11T22:39:59.344Z,55.83
2018-05-11T22:42:27.801Z,57.37
2018-05-11T22:44:56.250Z,58.72
2018-05-11T22:47:24.777Z,56.80
2018-05-11T22:49:53.294Z,57.68
2018-05-11T22:52:21.875Z,58.31
2018-05-11T22:54:51.192Z,57.41
2018-05-11T22:57:20.440Z,60.63
2018-05-11T22:59:48.890Z,60.37
2018-05-11T23:02:17.324Z,58.99
2018-05-11T23:04:52.206Z,59.38
2018-05-11T23:07:20.750Z,59.38
2018-05-11T23:09:49.209Z,58.90
2018-05-11T23:12:18.455Z,59.62
2018-05-11T23:14:47.103Z,59.27
2018-05-11T23:17:15.778Z,60.78
2018-05-11T23:19:44.619Z,61.32
2018-05-11T23:22:14.012Z,59.41
2018-05-11T23:24:42.459Z,57.99
2018-05-11T23:27:10.899Z,57.44
2018-05-11T23:29:39.363Z,57.87
2018-05-11T23:32:07.858Z,59.40
2018-05-11T23:34:36.372Z,60.32
2018-05-11T23:37:05.021Z,61.54
2018-05-11T23:39:33.487Z,61.54
2018-05-11T23:42:01.963Z,62.16
2018-05-11T23:44:30.431Z,62.60
2018-05-11T23:46:58.985Z,61.96
2018-05-11T23:49:29.384Z,59.80
2018-05-11T23:51:58.700Z,59.04
2018-05-11T23:54:27.256Z,58.08
2018-05-11T23:56:55.707Z,57.63
2018-05-11T23:59:24.135Z,57.32
